NCAR-RAP Real-Time Weather Data

Output produced by METARs form (14 October 2019  23:09 UTC)
found at http://weather.rap.ucar.edu/surface/
 
KBRO 142253Z 15013KT 10SM CLR 31/22 A2988 RMK AO2 SLP118 T03060222
KBRO 142153Z 15013KT 10SM CLR 32/22 A2988 RMK AO2 SLP118 T03170217
KBRO 142053Z 14010KT 10SM FEW040 32/22 A2989 RMK AO2 SLP119 T03170217 56019
KBRO 141953Z 13012KT 10SM SCT043 SCT050 33/22 A2989 RMK AO2 SLP120 T03280217
KBRO 141853Z 17007KT 10SM BKN042 32/22 A2991 RMK AO2 SLP128 T03170217
KBRO 141753Z 18008KT 10SM CLR 32/22 A2994 RMK AO2 SLP137 T03170217 10322 20211 58012
KBRO 141653Z 16008KT 10SM CLR 30/22 A2997 RMK AO2 SLP146 T03000222
KBRO 141553Z 21007KT 10SM CLR 28/22 A2998 RMK AO2 SLP150 T02830222
KBRO 141453Z 24003KT 10SM CLR 26/22 A2998 RMK AO2 SLP149 T02610217 53008
KBRO 141353Z 29003KT 10SM CLR 24/21 A2997 RMK AO2 SLP146 T02390211
KBRO 141253Z 00000KT 10SM CLR 22/20 A2996 RMK AO2 SLP143 T02170200
KBRO 141153Z 27003KT 10SM CLR 21/19 A2995 RMK AO2 SLP141 T02110194 10228 20211 53005
KBRO 141053Z 24004KT 10SM CLR 22/19 A2993 RMK AO2 SLP134 T02170194
KBRO 140953Z AUTO 00000KT 10SM CLR 22/19 A2993 RMK AO2 SLP133 T02170194
KBRO 140853Z AUTO 19003KT 10SM CLR 22/19 A2994 RMK AO2 SLP136 T02170194 58005
KBRO 140753Z AUTO 00000KT 10SM CLR 22/20 A2994 RMK AO2 SLP139 T02220200
KBRO 140653Z AUTO 00000KT 10SM CLR 22/20 A2994 RMK AO2 SLP138 T02220200
KBRO 140553Z AUTO 00000KT 10SM CLR 23/21 A2995 RMK AO2 SLP140 T02280206 10261 20228 403060200 50003
KBRO 140453Z AUTO 00000KT 10SM CLR 23/22 A2995 RMK AO2 SLP142 T02330217
KBRO 140353Z 00000KT 10SM CLR 23/21 A2995 RMK AO2 SLP139 T02330211
KBRO 140253Z 00000KT 10SM CLR 24/22 A2994 RMK AO2 SLP137 T02440222 53016
KBRO 140153Z 00000KT 10SM CLR 24/22 A2993 RMK AO2 SLP132 T02440222
KBRO 140053Z 05004KT 10SM CLR 25/22 A2990 RMK AO2 SLP125 T02500222
KBRO 132353Z 07007KT 10SM CLR 26/22 A2989 RMK AO2 SLP122 T02610222 10306 20261 53002
KBRO 132253Z 05007KT 10SM CLR 29/22 A2988 RMK AO2 SLP118 T02940222
KBRO 132153Z VRB03KT 10SM CLR 31/19 A2988 RMK AO2 SLP117 T03060194
KBRO 132053Z 32003KT 10SM CLR 29/19 A2989 RMK AO2 SLP119 T02940194 56021
KBRO 131953Z 32006KT 10SM CLR 29/19 A2990 RMK AO2 SLP125 T02940189
KBRO 131853Z 32006G14KT 10SM CLR 29/19 A2993 RMK AO2 SLP133 T02890189
KBRO 131753Z 32009KT 10SM CLR 27/16 A2995 RMK AO2 SLP140 T02720161 10272 20200 58008
KBRO 131739Z 33008KT 10SM SCT022 27/15 A2996 RMK AO2 T02670150
KBRO 131653Z 32008KT 10SM OVC016 24/13 A2998 RMK AO2 SLP150 T02440133
KBRO 131553Z 32008KT 10SM OVC015 24/14 A2997 RMK AO2 SLP149 T02390139
KBRO 131539Z VRB03KT 10SM BKN016 BKN030 OVC047 24/14 A2998 RMK AO2 T02390139
KBRO 131502Z 33009KT 10SM FEW012 SCT023 OVC033 22/12 A2997 RMK AO2 T02170122
KBRO 131453Z 34010KT 10SM SCT012 BKN023 OVC035 22/12 A2997 RMK AO2 SLP148 T02170122 50007
KBRO 131353Z 33011KT 10SM OVC012 21/11 A2997 RMK AO2 SLP148 T02060106
KBRO 131324Z 33009KT 10SM OVC014 20/12 A2996 RMK AO2 T02000117
KBRO 131306Z 33009G16KT 10SM BKN018 OVC041 20/12 A2996 RMK AO2 T02000117
KBRO 131253Z 33009KT 10SM SCT016 OVC041 20/12 A2995 RMK AO2 SLP142 T02000117
KBRO 131153Z 31009KT 10SM OVC017 20/11 A2995 RMK AO2 SLP142 T02000111 10206 20200 56004 $
KBRO 131053Z 32011KT 10SM OVC019 21/11 A2995 RMK AO2 SLP142 T02060106 $
KBRO 130953Z AUTO 33009KT 10SM OVC021 21/10 A2996 RMK AO2 SLP142 T02060100 $
KBRO 130853Z AUTO 31009KT 10SM OVC017 21/10 A2996 RMK AO2 SLP145 T02060100 58009 $
KBRO 130753Z AUTO 31008KT 10SM OVC017 21/11 A2997 RMK AO2 SLP148 T02060111 $
KBRO 130653Z AUTO 30008KT 10SM OVC018 21/11 A2998 RMK AO2 SLP152 T02060111 $
KBRO 130553Z AUTO 32007KT 10SM OVC019 21/12 A2999 RMK AO2 SLP154 T02060117 10206 20194 402280139 58017 $
KBRO 130453Z AUTO 32007KT 10SM OVC022 20/11 A3001 RMK AO2 SLP161 T02000106 $
KBRO 130353Z 32006KT 10SM OVC024 20/09 A3003 RMK AO2 SLP168 T02000094 $
KBRO 130253Z 34005KT 10SM BKN025 OVC080 20/08 A3004 RMK AO2 SLP172 T02000078 55001 $
KBRO 130153Z 36008KT 10SM OVC027 20/07 A3004 RMK AO2 SLP171 T02000072 $
KBRO 130053Z 02007KT 10SM OVC029 20/07 A3004 RMK AO2 SLP170 T02000072 $
KBRO 122353Z 01007KT 10SM OVC030 20/07 A3004 RMK AO2 SLP173 T02000067 10228 20189 55001 $